sensor_id;sensor_type;location;lat;lon;timestamp;P1;durP1;ratioP1;P2;durP2;ratioP2
6269;SDS011;3168;51.684;6.954;2023-03-19T00:02:08;9.33;;;8.40;;
6269;SDS011;3168;51.684;6.954;2023-03-19T00:04:34;9.70;;;8.03;;
6269;SDS011;3168;51.684;6.954;2023-03-19T00:07:00;10.27;;;9.03;;
6269;SDS011;3168;51.684;6.954;2023-03-19T00:09:26;10.13;;;6.30;;
6269;SDS011;3168;51.684;6.954;2023-03-19T00:11:52;8.20;;;6.87;;
6269;SDS011;3168;51.684;6.954;2023-03-19T00:14:17;15.03;;;8.13;;
6269;SDS011;3168;51.684;6.954;2023-03-19T00:16:44;9.37;;;8.20;;
6269;SDS011;3168;51.684;6.954;2023-03-19T00:19:10;9.10;;;8.33;;
6269;SDS011;3168;51.684;6.954;2023-03-19T00:21:36;8.80;;;7.80;;
6269;SDS011;3168;51.684;6.954;2023-03-19T00:24:01;7.50;;;5.73;;
6269;SDS011;3168;51.684;6.954;2023-03-19T00:26:28;9.60;;;6.27;;
6269;SDS011;3168;51.684;6.954;2023-03-19T00:28:54;7.23;;;6.40;;
6269;SDS011;3168;51.684;6.954;2023-03-19T00:31:20;7.20;;;6.07;;
6269;SDS011;3168;51.684;6.954;2023-03-19T00:33:46;8.70;;;7.10;;
6269;SDS011;3168;51.684;6.954;2023-03-19T00:36:12;6.90;;;6.13;;
6269;SDS011;3168;51.684;6.954;2023-03-19T00:38:38;7.70;;;6.93;;
6269;SDS011;3168;51.684;6.954;2023-03-19T00:41:04;9.67;;;7.17;;
6269;SDS011;3168;51.684;6.954;2023-03-19T00:43:30;16.77;;;6.10;;
6269;SDS011;3168;51.684;6.954;2023-03-19T00:45:56;8.33;;;6.03;;
6269;SDS011;3168;51.684;6.954;2023-03-19T00:48:21;6.83;;;6.20;;
6269;SDS011;3168;51.684;6.954;2023-03-19T00:50:48;7.70;;;5.73;;
6269;SDS011;3168;51.684;6.954;2023-03-19T00:53:14;8.17;;;7.10;;
6269;SDS011;3168;51.684;6.954;2023-03-19T00:55:40;9.20;;;8.07;;
6269;SDS011;3168;51.684;6.954;2023-03-19T00:58:05;8.40;;;7.43;;
6269;SDS011;3168;51.684;6.954;2023-03-19T01:00:32;16.60;;;5.53;;
6269;SDS011;3168;51.684;6.954;2023-03-19T01:02:57;7.57;;;6.27;;
6269;SDS011;3168;51.684;6.954;2023-03-19T01:05:23;12.03;;;6.57;;
6269;SDS011;3168;51.684;6.954;2023-03-19T01:07:49;15.03;;;6.93;;
6269;SDS011;3168;51.684;6.954;2023-03-19T01:10:16;8.40;;;5.20;;
6269;SDS011;3168;51.684;6.954;2023-03-19T01:12:43;9.30;;;5.60;;
6269;SDS011;3168;51.684;6.954;2023-03-19T01:15:09;5.67;;;5.17;;
6269;SDS011;3168;51.684;6.954;2023-03-19T01:17:35;4.40;;;3.93;;
6269;SDS011;3168;51.684;6.954;2023-03-19T01:20:02;5.83;;;5.47;;
6269;SDS011;3168;51.684;6.954;2023-03-19T01:22:27;6.97;;;5.70;;
6269;SDS011;3168;51.684;6.954;2023-03-19T01:24:53;5.27;;;4.97;;
6269;SDS011;3168;51.684;6.954;2023-03-19T01:27:19;6.63;;;6.00;;
6269;SDS011;3168;51.684;6.954;2023-03-19T01:29:44;5.50;;;5.20;;
6269;SDS011;3168;51.684;6.954;2023-03-19T01:32:10;6.63;;;5.87;;
6269;SDS011;3168;51.684;6.954;2023-03-19T01:34:36;4.70;;;4.50;;
6269;SDS011;3168;51.684;6.954;2023-03-19T01:37:02;6.03;;;5.33;;
6269;SDS011;3168;51.684;6.954;2023-03-19T01:39:28;5.40;;;5.00;;
6269;SDS011;3168;51.684;6.954;2023-03-19T01:41:54;10.27;;;6.10;;
6269;SDS011;3168;51.684;6.954;2023-03-19T01:44:23;11.77;;;6.10;;
6269;SDS011;3168;51.684;6.954;2023-03-19T01:46:50;5.43;;;5.13;;
6269;SDS011;3168;51.684;6.954;2023-03-19T01:49:17;5.57;;;5.17;;
6269;SDS011;3168;51.684;6.954;2023-03-19T01:51:42;6.50;;;6.03;;
6269;SDS011;3168;51.684;6.954;2023-03-19T01:54:09;6.80;;;6.20;;
6269;SDS011;3168;51.684;6.954;2023-03-19T01:56:35;6.03;;;5.30;;
6269;SDS011;3168;51.684;6.954;2023-03-19T01:59:01;10.10;;;6.50;;
6269;SDS011;3168;51.684;6.954;2023-03-19T02:01:25;6.77;;;6.17;;
6269;SDS011;3168;51.684;6.954;2023-03-19T02:03:51;6.70;;;5.70;;
6269;SDS011;3168;51.684;6.954;2023-03-19T02:06:18;6.07;;;5.60;;
6269;SDS011;3168;51.684;6.954;2023-03-19T02:08:44;6.00;;;5.60;;
6269;SDS011;3168;51.684;6.954;2023-03-19T02:11:09;5.63;;;5.33;;
6269;SDS011;3168;51.684;6.954;2023-03-19T02:13:35;7.20;;;6.43;;
6269;SDS011;3168;51.684;6.954;2023-03-19T02:16:01;6.30;;;5.70;;
6269;SDS011;3168;51.684;6.954;2023-03-19T02:18:27;5.50;;;5.17;;
6269;SDS011;3168;51.684;6.954;2023-03-19T02:20:57;7.50;;;6.03;;
6269;SDS011;3168;51.684;6.954;2023-03-19T02:26:12;7.67;;;6.73;;
6269;SDS011;3168;51.684;6.954;2023-03-19T02:28:37;5.57;;;5.10;;
6269;SDS011;3168;51.684;6.954;2023-03-19T02:31:03;6.37;;;5.90;;
6269;SDS011;3168;51.684;6.954;2023-03-19T02:33:28;6.10;;;5.70;;
6269;SDS011;3168;51.684;6.954;2023-03-19T02:35:54;5.90;;;5.40;;
6269;SDS011;3168;51.684;6.954;2023-03-19T02:38:20;5.93;;;5.53;;
6269;SDS011;3168;51.684;6.954;2023-03-19T02:40:48;7.97;;;6.97;;
6269;SDS011;3168;51.684;6.954;2023-03-19T02:43:14;6.80;;;6.30;;
6269;SDS011;3168;51.684;6.954;2023-03-19T02:45:41;9.67;;;7.50;;
6269;SDS011;3168;51.684;6.954;2023-03-19T02:48:06;8.20;;;7.40;;
6269;SDS011;3168;51.684;6.954;2023-03-19T02:50:32;8.33;;;7.47;;
6269;SDS011;3168;51.684;6.954;2023-03-19T02:52:58;7.70;;;6.40;;
6269;SDS011;3168;51.684;6.954;2023-03-19T02:55:24;6.03;;;5.70;;
6269;SDS011;3168;51.684;6.954;2023-03-19T02:57:50;6.93;;;6.23;;
6269;SDS011;3168;51.684;6.954;2023-03-19T03:00:15;7.27;;;6.57;;
6269;SDS011;3168;51.684;6.954;2023-03-19T03:02:41;5.43;;;4.93;;
6269;SDS011;3168;51.684;6.954;2023-03-19T03:05:07;7.33;;;6.70;;
6269;SDS011;3168;51.684;6.954;2023-03-19T03:07:33;6.87;;;6.17;;
6269;SDS011;3168;51.684;6.954;2023-03-19T03:09:59;5.73;;;5.23;;
6269;SDS011;3168;51.684;6.954;2023-03-19T03:12:25;13.90;;;6.33;;
6269;SDS011;3168;51.684;6.954;2023-03-19T03:14:51;6.03;;;5.47;;
6269;SDS011;3168;51.684;6.954;2023-03-19T03:17:16;6.63;;;6.03;;
6269;SDS011;3168;51.684;6.954;2023-03-19T03:19:42;4.47;;;4.20;;
6269;SDS011;3168;51.684;6.954;2023-03-19T03:22:08;7.27;;;5.80;;
6269;SDS011;3168;51.684;6.954;2023-03-19T03:24:34;6.43;;;5.80;;
6269;SDS011;3168;51.684;6.954;2023-03-19T03:27:00;7.80;;;7.00;;
6269;SDS011;3168;51.684;6.954;2023-03-19T03:29:26;6.17;;;5.57;;
6269;SDS011;3168;51.684;6.954;2023-03-19T03:31:52;5.30;;;4.90;;
6269;SDS011;3168;51.684;6.954;2023-03-19T03:34:18;7.10;;;5.70;;
6269;SDS011;3168;51.684;6.954;2023-03-19T03:36:43;8.87;;;5.57;;
6269;SDS011;3168;51.684;6.954;2023-03-19T03:39:09;8.60;;;5.20;;
6269;SDS011;3168;51.684;6.954;2023-03-19T03:41:35;5.63;;;5.33;;
6269;SDS011;3168;51.684;6.954;2023-03-19T03:44:01;5.60;;;5.10;;
6269;SDS011;3168;51.684;6.954;2023-03-19T03:46:27;4.17;;;3.93;;
6269;SDS011;3168;51.684;6.954;2023-03-19T03:48:53;7.20;;;6.67;;
6269;SDS011;3168;51.684;6.954;2023-03-19T03:51:19;5.33;;;4.93;;
6269;SDS011;3168;51.684;6.954;2023-03-19T03:53:45;6.00;;;5.57;;
6269;SDS011;3168;51.684;6.954;2023-03-19T03:56:11;12.30;;;6.43;;
6269;SDS011;3168;51.684;6.954;2023-03-19T03:58:36;5.90;;;5.50;;
6269;SDS011;3168;51.684;6.954;2023-03-19T04:01:02;5.63;;;5.23;;
6269;SDS011;3168;51.684;6.954;2023-03-19T04:03:28;6.07;;;5.67;;
6269;SDS011;3168;51.684;6.954;2023-03-19T04:05:54;5.30;;;4.50;;
6269;SDS011;3168;51.684;6.954;2023-03-19T04:08:20;6.00;;;5.60;;
6269;SDS011;3168;51.684;6.954;2023-03-19T04:10:45;5.90;;;5.40;;
6269;SDS011;3168;51.684;6.954;2023-03-19T04:13:11;5.33;;;5.00;;
6269;SDS011;3168;51.684;6.954;2023-03-19T04:15:37;6.67;;;6.07;;
6269;SDS011;3168;51.684;6.954;2023-03-19T04:18:04;5.17;;;4.67;;
6269;SDS011;3168;51.684;6.954;2023-03-19T04:20:30;5.60;;;5.20;;
6269;SDS011;3168;51.684;6.954;2023-03-19T04:22:55;6.33;;;5.87;;
6269;SDS011;3168;51.684;6.954;2023-03-19T04:25:21;6.30;;;5.80;;
6269;SDS011;3168;51.684;6.954;2023-03-19T04:27:47;4.67;;;4.47;;
6269;SDS011;3168;51.684;6.954;2023-03-19T04:30:13;5.23;;;4.23;;
6269;SDS011;3168;51.684;6.954;2023-03-19T04:32:39;6.77;;;6.17;;
6269;SDS011;3168;51.684;6.954;2023-03-19T04:35:05;5.00;;;4.80;;
6269;SDS011;3168;51.684;6.954;2023-03-19T04:37:31;6.97;;;6.37;;
6269;SDS011;3168;51.684;6.954;2023-03-19T04:39:57;5.20;;;4.80;;
6269;SDS011;3168;51.684;6.954;2023-03-19T04:42:22;7.80;;;5.00;;
6269;SDS011;3168;51.684;6.954;2023-03-19T04:44:48;5.93;;;5.50;;
6269;SDS011;3168;51.684;6.954;2023-03-19T04:47:14;5.90;;;5.50;;
6269;SDS011;3168;51.684;6.954;2023-03-19T04:49:40;5.43;;;4.97;;
6269;SDS011;3168;51.684;6.954;2023-03-19T04:52:07;5.00;;;4.70;;
6269;SDS011;3168;51.684;6.954;2023-03-19T04:54:33;5.73;;;5.27;;
6269;SDS011;3168;51.684;6.954;2023-03-19T04:56:59;5.70;;;5.30;;
6269;SDS011;3168;51.684;6.954;2023-03-19T04:59:26;6.13;;;5.63;;
6269;SDS011;3168;51.684;6.954;2023-03-19T05:01:52;4.60;;;4.30;;
6269;SDS011;3168;51.684;6.954;2023-03-19T05:04:18;4.63;;;4.43;;
6269;SDS011;3168;51.684;6.954;2023-03-19T05:06:44;5.67;;;5.10;;
6269;SDS011;3168;51.684;6.954;2023-03-19T05:09:10;5.53;;;5.10;;
6269;SDS011;3168;51.684;6.954;2023-03-19T05:11:36;8.32;;;4.18;;
6269;SDS011;3168;51.684;6.954;2023-03-19T05:14:02;5.63;;;5.13;;
6269;SDS011;3168;51.684;6.954;2023-03-19T05:16:27;3.77;;;3.57;;
6269;SDS011;3168;51.684;6.954;2023-03-19T05:18:53;12.03;;;3.90;;
6269;SDS011;3168;51.684;6.954;2023-03-19T05:21:19;4.20;;;4.00;;
6269;SDS011;3168;51.684;6.954;2023-03-19T05:23:45;4.37;;;4.10;;
6269;SDS011;3168;51.684;6.954;2023-03-19T05:26:11;3.77;;;3.47;;
6269;SDS011;3168;51.684;6.954;2023-03-19T05:28:37;4.23;;;4.03;;
6269;SDS011;3168;51.684;6.954;2023-03-19T05:31:03;5.23;;;3.63;;
6269;SDS011;3168;51.684;6.954;2023-03-19T05:33:29;7.87;;;4.60;;
6269;SDS011;3168;51.684;6.954;2023-03-19T05:35:55;4.47;;;4.10;;
6269;SDS011;3168;51.684;6.954;2023-03-19T05:38:21;5.50;;;3.53;;
6269;SDS011;3168;51.684;6.954;2023-03-19T05:40:47;4.30;;;3.20;;
6269;SDS011;3168;51.684;6.954;2023-03-19T05:43:13;4.43;;;4.00;;
6269;SDS011;3168;51.684;6.954;2023-03-19T05:45:38;5.90;;;4.13;;
6269;SDS011;3168;51.684;6.954;2023-03-19T05:48:04;4.30;;;3.70;;
6269;SDS011;3168;51.684;6.954;2023-03-19T05:50:30;3.60;;;3.37;;
6269;SDS011;3168;51.684;6.954;2023-03-19T05:52:56;7.53;;;4.37;;
6269;SDS011;3168;51.684;6.954;2023-03-19T05:55:22;3.20;;;3.00;;
6269;SDS011;3168;51.684;6.954;2023-03-19T05:57:48;3.87;;;3.57;;
6269;SDS011;3168;51.684;6.954;2023-03-19T06:00:14;4.17;;;3.87;;
6269;SDS011;3168;51.684;6.954;2023-03-19T06:02:40;3.93;;;3.63;;
6269;SDS011;3168;51.684;6.954;2023-03-19T06:05:06;4.07;;;3.87;;
6269;SDS011;3168;51.684;6.954;2023-03-19T06:07:33;4.83;;;4.50;;
6269;SDS011;3168;51.684;6.954;2023-03-19T06:09:59;4.10;;;3.90;;
6269;SDS011;3168;51.684;6.954;2023-03-19T06:12:25;3.90;;;3.43;;
6269;SDS011;3168;51.684;6.954;2023-03-19T06:14:51;4.40;;;3.77;;
6269;SDS011;3168;51.684;6.954;2023-03-19T06:17:17;4.73;;;4.30;;
6269;SDS011;3168;51.684;6.954;2023-03-19T06:19:42;4.03;;;3.73;;
6269;SDS011;3168;51.684;6.954;2023-03-19T06:22:08;5.07;;;4.53;;
6269;SDS011;3168;51.684;6.954;2023-03-19T06:24:34;3.60;;;3.30;;
6269;SDS011;3168;51.684;6.954;2023-03-19T06:27:00;4.50;;;4.10;;
6269;SDS011;3168;51.684;6.954;2023-03-19T06:29:26;4.70;;;4.10;;
6269;SDS011;3168;51.684;6.954;2023-03-19T06:31:52;4.00;;;3.70;;
6269;SDS011;3168;51.684;6.954;2023-03-19T06:34:18;8.70;;;3.87;;
6269;SDS011;3168;51.684;6.954;2023-03-19T06:36:44;5.33;;;3.87;;
6269;SDS011;3168;51.684;6.954;2023-03-19T06:39:09;5.73;;;4.37;;
6269;SDS011;3168;51.684;6.954;2023-03-19T06:41:35;4.60;;;2.97;;
6269;SDS011;3168;51.684;6.954;2023-03-19T06:44:01;5.23;;;3.23;;
6269;SDS011;3168;51.684;6.954;2023-03-19T06:46:27;5.13;;;4.40;;
6269;SDS011;3168;51.684;6.954;2023-03-19T06:48:53;9.10;;;4.40;;
6269;SDS011;3168;51.684;6.954;2023-03-19T06:51:19;12.63;;;4.47;;
6269;SDS011;3168;51.684;6.954;2023-03-19T06:53:44;5.30;;;4.87;;
6269;SDS011;3168;51.684;6.954;2023-03-19T06:56:10;12.20;;;4.10;;
6269;SDS011;3168;51.684;6.954;2023-03-19T06:58:36;4.43;;;4.03;;
6269;SDS011;3168;51.684;6.954;2023-03-19T07:01:02;8.33;;;3.53;;
6269;SDS011;3168;51.684;6.954;2023-03-19T07:03:28;4.73;;;4.43;;
6269;SDS011;3168;51.684;6.954;2023-03-19T07:05:54;4.60;;;4.07;;
6269;SDS011;3168;51.684;6.954;2023-03-19T07:08:20;5.43;;;3.60;;
6269;SDS011;3168;51.684;6.954;2023-03-19T07:10:45;3.43;;;3.23;;
6269;SDS011;3168;51.684;6.954;2023-03-19T07:13:11;3.73;;;3.53;;
6269;SDS011;3168;51.684;6.954;2023-03-19T07:15:37;4.70;;;4.37;;
6269;SDS011;3168;51.684;6.954;2023-03-19T07:18:03;5.90;;;5.03;;
6269;SDS011;3168;51.684;6.954;2023-03-19T07:20:29;4.17;;;3.80;;
6269;SDS011;3168;51.684;6.954;2023-03-19T07:22:55;3.93;;;3.73;;
6269;SDS011;3168;51.684;6.954;2023-03-19T07:25:21;4.63;;;4.23;;
6269;SDS011;3168;51.684;6.954;2023-03-19T07:27:46;4.97;;;4.67;;
6269;SDS011;3168;51.684;6.954;2023-03-19T07:30:12;5.10;;;4.80;;
6269;SDS011;3168;51.684;6.954;2023-03-19T07:32:38;4.93;;;4.63;;
6269;SDS011;3168;51.684;6.954;2023-03-19T07:35:05;8.20;;;4.40;;
6269;SDS011;3168;51.684;6.954;2023-03-19T07:37:32;4.37;;;3.97;;
6269;SDS011;3168;51.684;6.954;2023-03-19T07:39:58;13.10;;;5.17;;
6269;SDS011;3168;51.684;6.954;2023-03-19T07:42:23;4.67;;;4.27;;
6269;SDS011;3168;51.684;6.954;2023-03-19T07:44:49;7.80;;;4.50;;
6269;SDS011;3168;51.684;6.954;2023-03-19T07:47:15;5.30;;;4.93;;
6269;SDS011;3168;51.684;6.954;2023-03-19T07:49:41;5.20;;;4.63;;
6269;SDS011;3168;51.684;6.954;2023-03-19T07:52:07;6.03;;;5.37;;
6269;SDS011;3168;51.684;6.954;2023-03-19T07:54:33;4.53;;;4.23;;
6269;SDS011;3168;51.684;6.954;2023-03-19T07:56:59;6.07;;;4.93;;
6269;SDS011;3168;51.684;6.954;2023-03-19T07:59:25;6.80;;;3.50;;
6269;SDS011;3168;51.684;6.954;2023-03-19T08:01:50;5.33;;;4.60;;
6269;SDS011;3168;51.684;6.954;2023-03-19T08:04:16;5.73;;;5.00;;
6269;SDS011;3168;51.684;6.954;2023-03-19T08:06:42;5.87;;;5.20;;
6269;SDS011;3168;51.684;6.954;2023-03-19T08:09:08;6.67;;;5.00;;
6269;SDS011;3168;51.684;6.954;2023-03-19T08:11:34;6.50;;;5.47;;
6269;SDS011;3168;51.684;6.954;2023-03-19T08:14:00;6.60;;;5.10;;
6269;SDS011;3168;51.684;6.954;2023-03-19T08:16:26;9.60;;;4.50;;
6269;SDS011;3168;51.684;6.954;2023-03-19T08:18:52;4.37;;;4.17;;
6269;SDS011;3168;51.684;6.954;2023-03-19T08:21:18;5.60;;;4.17;;
6269;SDS011;3168;51.684;6.954;2023-03-19T08:23:44;4.30;;;3.97;;
6269;SDS011;3168;51.684;6.954;2023-03-19T08:29:06;6.00;;;5.30;;
6269;SDS011;3168;51.684;6.954;2023-03-19T08:31:32;6.97;;;4.90;;
6269;SDS011;3168;51.684;6.954;2023-03-19T08:33:58;4.53;;;4.30;;
6269;SDS011;3168;51.684;6.954;2023-03-19T08:36:25;6.93;;;5.43;;
6269;SDS011;3168;51.684;6.954;2023-03-19T08:38:51;5.53;;;4.73;;
6269;SDS011;3168;51.684;6.954;2023-03-19T08:41:16;5.30;;;4.90;;
6269;SDS011;3168;51.684;6.954;2023-03-19T08:43:42;5.43;;;5.03;;
6269;SDS011;3168;51.684;6.954;2023-03-19T08:46:08;6.47;;;5.27;;
6269;SDS011;3168;51.684;6.954;2023-03-19T08:48:34;4.53;;;4.00;;
6269;SDS011;3168;51.684;6.954;2023-03-19T08:51:01;6.03;;;5.47;;
6269;SDS011;3168;51.684;6.954;2023-03-19T08:53:26;6.77;;;5.60;;
6269;SDS011;3168;51.684;6.954;2023-03-19T08:55:52;7.33;;;5.47;;
6269;SDS011;3168;51.684;6.954;2023-03-19T08:58:18;6.47;;;5.87;;
6269;SDS011;3168;51.684;6.954;2023-03-19T09:00:43;5.33;;;4.50;;
6269;SDS011;3168;51.684;6.954;2023-03-19T09:03:09;5.40;;;4.80;;
6269;SDS011;3168;51.684;6.954;2023-03-19T09:05:35;5.30;;;4.90;;
6269;SDS011;3168;51.684;6.954;2023-03-19T09:08:01;9.80;;;5.87;;
6269;SDS011;3168;51.684;6.954;2023-03-19T09:10:27;8.17;;;6.10;;
6269;SDS011;3168;51.684;6.954;2023-03-19T09:12:53;9.33;;;6.37;;
6269;SDS011;3168;51.684;6.954;2023-03-19T09:15:18;5.97;;;5.50;;
6269;SDS011;3168;51.684;6.954;2023-03-19T09:17:44;9.97;;;4.70;;
6269;SDS011;3168;51.684;6.954;2023-03-19T09:20:10;4.30;;;4.00;;
6269;SDS011;3168;51.684;6.954;2023-03-19T09:22:37;5.53;;;5.00;;
6269;SDS011;3168;51.684;6.954;2023-03-19T09:25:03;6.60;;;4.43;;
6269;SDS011;3168;51.684;6.954;2023-03-19T09:27:29;5.50;;;5.00;;
6269;SDS011;3168;51.684;6.954;2023-03-19T09:29:55;7.53;;;5.40;;
6269;SDS011;3168;51.684;6.954;2023-03-19T09:32:21;7.17;;;5.33;;
6269;SDS011;3168;51.684;6.954;2023-03-19T09:34:47;5.80;;;5.33;;
6269;SDS011;3168;51.684;6.954;2023-03-19T09:37:13;7.00;;;6.40;;
6269;SDS011;3168;51.684;6.954;2023-03-19T09:39:39;7.60;;;7.00;;
6269;SDS011;3168;51.684;6.954;2023-03-19T09:44:39;6.73;;;6.00;;
6269;SDS011;3168;51.684;6.954;2023-03-19T09:47:24;8.93;;;7.33;;
6269;SDS011;3168;51.684;6.954;2023-03-19T09:49:50;9.97;;;7.80;;
6269;SDS011;3168;51.684;6.954;2023-03-19T09:52:23;11.00;;;8.33;;
6269;SDS011;3168;51.684;6.954;2023-03-19T09:54:45;12.47;;;7.90;;
6269;SDS011;3168;51.684;6.954;2023-03-19T09:57:10;14.60;;;7.27;;
6269;SDS011;3168;51.684;6.954;2023-03-19T09:59:36;8.27;;;7.03;;
6269;SDS011;3168;51.684;6.954;2023-03-19T10:02:12;11.93;;;7.77;;
6269;SDS011;3168;51.684;6.954;2023-03-19T10:04:38;16.43;;;10.90;;
6269;SDS011;3168;51.684;6.954;2023-03-19T10:09:50;11.30;;;8.63;;
6269;SDS011;3168;51.684;6.954;2023-03-19T10:17:38;8.27;;;7.17;;
6269;SDS011;3168;51.684;6.954;2023-03-19T10:20:04;11.00;;;9.67;;
6269;SDS011;3168;51.684;6.954;2023-03-19T10:22:31;13.03;;;7.63;;
6269;SDS011;3168;51.684;6.954;2023-03-19T10:24:55;9.17;;;7.53;;
6269;SDS011;3168;51.684;6.954;2023-03-19T10:27:21;11.30;;;7.70;;
6269;SDS011;3168;51.684;6.954;2023-03-19T10:29:46;9.20;;;7.60;;
6269;SDS011;3168;51.684;6.954;2023-03-19T10:32:20;10.93;;;9.53;;
6269;SDS011;3168;51.684;6.954;2023-03-19T10:34:51;18.07;;;10.30;;
6269;SDS011;3168;51.684;6.954;2023-03-19T10:37:21;12.47;;;10.67;;
6269;SDS011;3168;51.684;6.954;2023-03-19T10:39:50;18.37;;;12.80;;
6269;SDS011;3168;51.684;6.954;2023-03-19T10:45:18;16.60;;;11.50;;
6269;SDS011;3168;51.684;6.954;2023-03-19T10:47:43;15.60;;;11.10;;
6269;SDS011;3168;51.684;6.954;2023-03-19T10:50:15;12.57;;;9.30;;
6269;SDS011;3168;51.684;6.954;2023-03-19T10:52:40;23.80;;;11.20;;
6269;SDS011;3168;51.684;6.954;2023-03-19T10:55:11;20.30;;;11.33;;
6269;SDS011;3168;51.684;6.954;2023-03-19T10:57:32;17.27;;;10.77;;
6269;SDS011;3168;51.684;6.954;2023-03-19T11:00:00;14.97;;;10.57;;
6269;SDS011;3168;51.684;6.954;2023-03-19T11:02:25;19.50;;;9.87;;
6269;SDS011;3168;51.684;6.954;2023-03-19T11:05:25;17.27;;;10.60;;
6269;SDS011;3168;51.684;6.954;2023-03-19T11:07:57;16.93;;;10.40;;
6269;SDS011;3168;51.684;6.954;2023-03-19T11:10:25;13.07;;;10.93;;
6269;SDS011;3168;51.684;6.954;2023-03-19T11:12:52;16.90;;;11.10;;
6269;SDS011;3168;51.684;6.954;2023-03-19T11:15:21;11.85;;;9.52;;
6269;SDS011;3168;51.684;6.954;2023-03-19T11:17:47;13.03;;;8.57;;
6269;SDS011;3168;51.684;6.954;2023-03-19T11:22:41;10.10;;;7.50;;
6269;SDS011;3168;51.684;6.954;2023-03-19T11:25:15;9.63;;;8.33;;
6269;SDS011;3168;51.684;6.954;2023-03-19T11:27:40;8.17;;;7.27;;
6269;SDS011;3168;51.684;6.954;2023-03-19T11:30:12;7.40;;;6.70;;
6269;SDS011;3168;51.684;6.954;2023-03-19T11:33:05;9.43;;;7.00;;
6269;SDS011;3168;51.684;6.954;2023-03-19T11:35:31;12.20;;;7.53;;
6269;SDS011;3168;51.684;6.954;2023-03-19T11:37:58;6.87;;;6.27;;
6269;SDS011;3168;51.684;6.954;2023-03-19T11:40:28;8.17;;;7.47;;
6269;SDS011;3168;51.684;6.954;2023-03-19T11:45:44;7.67;;;6.57;;
6269;SDS011;3168;51.684;6.954;2023-03-19T11:50:59;7.20;;;6.50;;
6269;SDS011;3168;51.684;6.954;2023-03-19T11:53:27;6.30;;;5.70;;
6269;SDS011;3168;51.684;6.954;2023-03-19T11:55:58;6.27;;;5.67;;
6269;SDS011;3168;51.684;6.954;2023-03-19T11:58:43;14.13;;;5.90;;
6269;SDS011;3168;51.684;6.954;2023-03-19T12:01:13;5.07;;;4.67;;
6269;SDS011;3168;51.684;6.954;2023-03-19T12:03:51;6.53;;;5.97;;
6269;SDS011;3168;51.684;6.954;2023-03-19T12:09:00;5.87;;;5.40;;
6269;SDS011;3168;51.684;6.954;2023-03-19T12:14:48;5.73;;;5.10;;
6269;SDS011;3168;51.684;6.954;2023-03-19T12:17:50;7.03;;;5.07;;
6269;SDS011;3168;51.684;6.954;2023-03-19T12:20:27;4.93;;;4.63;;
6269;SDS011;3168;51.684;6.954;2023-03-19T12:23:11;4.77;;;4.10;;
6269;SDS011;3168;51.684;6.954;2023-03-19T12:25:43;5.45;;;5.00;;
6269;SDS011;3168;51.684;6.954;2023-03-19T12:28:17;6.93;;;5.60;;
6269;SDS011;3168;51.684;6.954;2023-03-19T12:30:44;10.23;;;5.00;;
6269;SDS011;3168;51.684;6.954;2023-03-19T12:33:15;5.63;;;5.00;;
6269;SDS011;3168;51.684;6.954;2023-03-19T12:35:45;4.57;;;4.23;;
6269;SDS011;3168;51.684;6.954;2023-03-19T12:38:23;8.13;;;5.80;;
6269;SDS011;3168;51.684;6.954;2023-03-19T12:40:57;4.97;;;4.63;;
6269;SDS011;3168;51.684;6.954;2023-03-19T12:43:33;8.80;;;4.70;;
6269;SDS011;3168;51.684;6.954;2023-03-19T12:46:11;20.80;;;13.47;;
6269;SDS011;3168;51.684;6.954;2023-03-19T12:48:38;12.10;;;4.60;;
6269;SDS011;3168;51.684;6.954;2023-03-19T12:51:04;5.07;;;4.57;;
6269;SDS011;3168;51.684;6.954;2023-03-19T12:53:39;3.97;;;3.60;;
6269;SDS011;3168;51.684;6.954;2023-03-19T12:55:59;4.17;;;3.93;;
6269;SDS011;3168;51.684;6.954;2023-03-19T12:59:32;8.50;;;5.70;;
6269;SDS011;3168;51.684;6.954;2023-03-19T13:01:09;4.70;;;4.40;;
6269;SDS011;3168;51.684;6.954;2023-03-19T13:03:47;10.90;;;4.87;;
6269;SDS011;3168;51.684;6.954;2023-03-19T13:06:15;5.63;;;4.60;;
6269;SDS011;3168;51.684;6.954;2023-03-19T13:08:42;5.93;;;5.47;;
6269;SDS011;3168;51.684;6.954;2023-03-19T13:11:10;5.20;;;4.40;;
6269;SDS011;3168;51.684;6.954;2023-03-19T13:13:38;6.73;;;6.23;;
6269;SDS011;3168;51.684;6.954;2023-03-19T13:16:16;10.37;;;6.23;;
6269;SDS011;3168;51.684;6.954;2023-03-19T13:18:47;6.63;;;5.10;;
6269;SDS011;3168;51.684;6.954;2023-03-19T13:21:15;4.30;;;4.10;;
6269;SDS011;3168;51.684;6.954;2023-03-19T13:23:40;8.03;;;4.70;;
6269;SDS011;3168;51.684;6.954;2023-03-19T13:26:06;4.97;;;4.57;;
6269;SDS011;3168;51.684;6.954;2023-03-19T13:28:32;3.60;;;3.43;;
6269;SDS011;3168;51.684;6.954;2023-03-19T13:31:01;2.93;;;2.73;;
6269;SDS011;3168;51.684;6.954;2023-03-19T13:33:29;4.50;;;3.23;;
6269;SDS011;3168;51.684;6.954;2023-03-19T13:35:55;2.73;;;2.50;;
6269;SDS011;3168;51.684;6.954;2023-03-19T13:38:23;3.27;;;3.10;;
6269;SDS011;3168;51.684;6.954;2023-03-19T13:40:50;3.00;;;2.80;;
6269;SDS011;3168;51.684;6.954;2023-03-19T13:46:25;2.73;;;2.53;;
6269;SDS011;3168;51.684;6.954;2023-03-19T13:48:51;2.33;;;2.23;;
6269;SDS011;3168;51.684;6.954;2023-03-19T13:51:24;3.03;;;2.93;;
6269;SDS011;3168;51.684;6.954;2023-03-19T13:59:21;2.60;;;2.50;;
6269;SDS011;3168;51.684;6.954;2023-03-19T14:01:52;2.40;;;2.30;;
6269;SDS011;3168;51.684;6.954;2023-03-19T14:04:20;1.90;;;1.90;;
6269;SDS011;3168;51.684;6.954;2023-03-19T14:06:46;2.00;;;1.90;;
6269;SDS011;3168;51.684;6.954;2023-03-19T14:09:28;1.73;;;1.60;;
6269;SDS011;3168;51.684;6.954;2023-03-19T14:11:53;2.70;;;1.70;;
6269;SDS011;3168;51.684;6.954;2023-03-19T14:14:19;4.67;;;2.17;;
6269;SDS011;3168;51.684;6.954;2023-03-19T14:16:45;2.10;;;1.97;;
6269;SDS011;3168;51.684;6.954;2023-03-19T14:19:11;1.60;;;1.50;;
6269;SDS011;3168;51.684;6.954;2023-03-19T14:21:41;3.03;;;1.60;;
6269;SDS011;3168;51.684;6.954;2023-03-19T14:27:01;1.10;;;1.10;;
6269;SDS011;3168;51.684;6.954;2023-03-19T14:29:26;1.27;;;1.27;;
6269;SDS011;3168;51.684;6.954;2023-03-19T14:31:52;1.50;;;1.50;;
6269;SDS011;3168;51.684;6.954;2023-03-19T14:34:19;2.63;;;2.37;;
6269;SDS011;3168;51.684;6.954;2023-03-19T14:36:48;2.00;;;1.90;;
6269;SDS011;3168;51.684;6.954;2023-03-19T14:39:17;1.30;;;1.30;;
6269;SDS011;3168;51.684;6.954;2023-03-19T14:41:42;1.30;;;1.30;;
6269;SDS011;3168;51.684;6.954;2023-03-19T14:44:13;1.10;;;1.00;;
6269;SDS011;3168;51.684;6.954;2023-03-19T14:46:44;1.70;;;1.60;;
6269;SDS011;3168;51.684;6.954;2023-03-19T14:51:49;3.27;;;3.00;;
6269;SDS011;3168;51.684;6.954;2023-03-19T14:54:22;6.83;;;3.00;;
6269;SDS011;3168;51.684;6.954;2023-03-19T14:56:48;2.40;;;2.30;;
6269;SDS011;3168;51.684;6.954;2023-03-19T14:59:14;2.50;;;2.00;;
6269;SDS011;3168;51.684;6.954;2023-03-19T15:01:40;3.00;;;2.77;;
6269;SDS011;3168;51.684;6.954;2023-03-19T15:04:08;2.80;;;2.70;;
6269;SDS011;3168;51.684;6.954;2023-03-19T15:06:34;3.70;;;2.83;;
6269;SDS011;3168;51.684;6.954;2023-03-19T15:08:59;2.40;;;2.20;;
6269;SDS011;3168;51.684;6.954;2023-03-19T15:11:32;2.73;;;2.63;;
6269;SDS011;3168;51.684;6.954;2023-03-19T15:16:55;2.13;;;2.03;;
6269;SDS011;3168;51.684;6.954;2023-03-19T15:19:26;3.57;;;2.10;;
6269;SDS011;3168;51.684;6.954;2023-03-19T15:22:02;1.80;;;1.70;;
6269;SDS011;3168;51.684;6.954;2023-03-19T15:24:17;2.23;;;2.13;;
6269;SDS011;3168;51.684;6.954;2023-03-19T15:26:43;1.63;;;1.53;;
6269;SDS011;3168;51.684;6.954;2023-03-19T15:29:09;3.30;;;2.27;;
6269;SDS011;3168;51.684;6.954;2023-03-19T15:31:43;1.52;;;1.52;;
6269;SDS011;3168;51.684;6.954;2023-03-19T15:36:42;2.17;;;1.93;;
6269;SDS011;3168;51.684;6.954;2023-03-19T15:39:09;2.37;;;2.27;;
6269;SDS011;3168;51.684;6.954;2023-03-19T15:41:34;3.47;;;1.50;;
6269;SDS011;3168;51.684;6.954;2023-03-19T15:43:59;1.40;;;1.30;;
6269;SDS011;3168;51.684;6.954;2023-03-19T15:46:28;1.87;;;1.77;;
6269;SDS011;3168;51.684;6.954;2023-03-19T15:49:00;2.33;;;1.80;;
6269;SDS011;3168;51.684;6.954;2023-03-19T15:51:23;2.40;;;1.40;;
6269;SDS011;3168;51.684;6.954;2023-03-19T15:53:49;4.83;;;1.60;;
6269;SDS011;3168;51.684;6.954;2023-03-19T15:56:15;1.80;;;1.70;;
6269;SDS011;3168;51.684;6.954;2023-03-19T15:58:41;3.90;;;1.27;;
6269;SDS011;3168;51.684;6.954;2023-03-19T16:01:06;1.50;;;1.40;;
6269;SDS011;3168;51.684;6.954;2023-03-19T16:03:38;1.80;;;1.70;;
6269;SDS011;3168;51.684;6.954;2023-03-19T16:06:04;2.20;;;2.10;;